sensor_id;sensor_type;location;lat;lon;timestamp;pressure;altitude;pressure_sealevel;temperature
68440;BMP180;55421;51.600;5.718;2022-09-13T00:01:00;224985.59;;;18.76
68440;BMP180;55421;51.600;5.718;2022-09-13T00:03:35;224972.41;;;18.70
68440;BMP180;55421;51.600;5.718;2022-09-13T00:06:16;224968.00;;;18.70
68440;BMP180;55421;51.600;5.718;2022-09-13T00:08:45;224964.80;;;18.70
68440;BMP180;55421;51.600;5.718;2022-09-13T00:11:18;224947.20;;;18.70
68440;BMP180;55421;51.600;5.718;2022-09-13T00:13:46;224917.00;;;18.66
68440;BMP180;55421;51.600;5.718;2022-09-13T00:16:16;224905.41;;;18.60
68440;BMP180;55421;51.600;5.718;2022-09-13T00:18:43;224918.59;;;18.62
68440;BMP180;55421;51.600;5.718;2022-09-13T00:21:16;224945.59;;;18.70
68440;BMP180;55421;51.600;5.718;2022-09-13T00:23:47;224952.00;;;18.70
68440;BMP180;55421;51.600;5.718;2022-09-13T00:26:21;224945.59;;;18.70
68440;BMP180;55421;51.600;5.718;2022-09-13T00:28:55;224941.80;;;18.70
68440;BMP180;55421;51.600;5.718;2022-09-13T00:31:24;224917.00;;;18.60
68440;BMP180;55421;51.600;5.718;2022-09-13T00:33:53;224908.59;;;18.60
68440;BMP180;55421;51.600;5.718;2022-09-13T00:36:20;224896.20;;;18.60
68440;BMP180;55421;51.600;5.718;2022-09-13T00:38:46;224887.00;;;18.60
68440;BMP180;55421;51.600;5.718;2022-09-13T00:41:16;224872.59;;;18.60
68440;BMP180;55421;51.600;5.718;2022-09-13T00:43:54;224877.41;;;18.60
68440;BMP180;55421;51.600;5.718;2022-09-13T00:49:20;224905.41;;;18.60
68440;BMP180;55421;51.600;5.718;2022-09-13T00:51:59;224922.41;;;18.62
68440;BMP180;55421;51.600;5.718;2022-09-13T00:54:34;224924.00;;;18.66
68440;BMP180;55421;51.600;5.718;2022-09-13T00:57:05;224918.59;;;18.62
68440;BMP180;55421;51.600;5.718;2022-09-13T00:59:42;224915.41;;;18.60
68440;BMP180;55421;51.600;5.718;2022-09-13T01:02:10;224917.00;;;18.60
68440;BMP180;55421;51.600;5.718;2022-09-13T01:04:37;224918.59;;;18.64
68440;BMP180;55421;51.600;5.718;2022-09-13T01:07:08;224944.00;;;18.70
68440;BMP180;55421;51.600;5.718;2022-09-13T01:09:41;224966.41;;;18.70
68440;BMP180;55421;51.600;5.718;2022-09-13T01:12:40;224977.20;;;18.70
68440;BMP180;55421;51.600;5.718;2022-09-13T01:15:09;224969.59;;;18.70
68440;BMP180;55421;51.600;5.718;2022-09-13T01:17:38;224953.59;;;18.70
68440;BMP180;55421;51.600;5.718;2022-09-13T01:20:07;224940.20;;;18.70
68440;BMP180;55421;51.600;5.718;2022-09-13T01:23:15;224927.80;;;18.66
68440;BMP180;55421;51.600;5.718;2022-09-13T01:26:49;224900.59;;;18.60
68440;BMP180;55421;51.600;5.718;2022-09-13T01:29:56;224866.20;;;18.60
68440;BMP180;55421;51.600;5.718;2022-09-13T01:38:41;224882.20;;;18.60
68440;BMP180;55421;51.600;5.718;2022-09-13T01:41:58;224862.20;;;18.54
68440;BMP180;55421;51.600;5.718;2022-09-13T01:48:08;224830.41;;;18.50
68440;BMP180;55421;51.600;5.718;2022-09-13T01:50:59;224819.59;;;18.48
68440;BMP180;55421;51.600;5.718;2022-09-13T02:00:06;224844.00;;;18.50
68440;BMP180;55421;51.600;5.718;2022-09-13T02:02:49;224857.00;;;18.50
68440;BMP180;55421;51.600;5.718;2022-09-13T02:05:31;224854.80;;;18.50
68440;BMP180;55421;51.600;5.718;2022-09-13T02:08:23;224843.00;;;18.50
68440;BMP180;55421;51.600;5.718;2022-09-13T02:11:03;224837.20;;;18.50
68440;BMP180;55421;51.600;5.718;2022-09-13T02:13:37;224828.80;;;18.50
68440;BMP180;55421;51.600;5.718;2022-09-13T02:16:23;224811.59;;;18.44
68440;BMP180;55421;51.600;5.718;2022-09-13T02:19:02;224802.00;;;18.40
68440;BMP180;55421;51.600;5.718;2022-09-13T02:21:34;224803.59;;;18.42
68440;BMP180;55421;51.600;5.718;2022-09-13T02:24:13;224828.80;;;18.50
68440;BMP180;55421;51.600;5.718;2022-09-13T02:26:44;224837.59;;;18.50
68440;BMP180;55421;51.600;5.718;2022-09-13T02:29:16;224854.80;;;18.50
68440;BMP180;55421;51.600;5.718;2022-09-13T02:32:00;224846.41;;;18.50
68440;BMP180;55421;51.600;5.718;2022-09-13T02:34:42;224848.00;;;18.50
68440;BMP180;55421;51.600;5.718;2022-09-13T02:37:12;224836.00;;;18.50
68440;BMP180;55421;51.600;5.718;2022-09-13T02:39:52;224827.59;;;18.50
68440;BMP180;55421;51.600;5.718;2022-09-13T02:42:34;224826.00;;;18.50
68440;BMP180;55421;51.600;5.718;2022-09-13T02:45:03;224840.00;;;18.50
68440;BMP180;55421;51.600;5.718;2022-09-13T02:53:38;224838.80;;;18.50
68440;BMP180;55421;51.600;5.718;2022-09-13T02:56:33;224827.59;;;18.50
68440;BMP180;55421;51.600;5.718;2022-09-13T02:59:15;224808.41;;;18.48
68440;BMP180;55421;51.600;5.718;2022-09-13T03:01:58;224789.20;;;18.40
68440;BMP180;55421;51.600;5.718;2022-09-13T03:04:27;224762.41;;;18.36
68440;BMP180;55421;51.600;5.718;2022-09-13T03:06:53;224746.41;;;18.30
68440;BMP180;55421;51.600;5.718;2022-09-13T03:09:21;224749.59;;;18.30
68440;BMP180;55421;51.600;5.718;2022-09-13T03:18:00;224770.00;;;18.40
68440;BMP180;55421;51.600;5.718;2022-09-13T03:21:04;224770.00;;;18.40
68440;BMP180;55421;51.600;5.718;2022-09-13T03:27:12;224748.00;;;18.30
68440;BMP180;55421;51.600;5.718;2022-09-13T03:30:08;224726.00;;;18.30
68440;BMP180;55421;51.600;5.718;2022-09-13T03:32:57;224724.41;;;18.30
68440;BMP180;55421;51.600;5.718;2022-09-13T03:35:53;224719.80;;;18.30
68440;BMP180;55421;51.600;5.718;2022-09-13T03:41:17;224705.20;;;18.28
68440;BMP180;55421;51.600;5.718;2022-09-13T03:43:51;224685.80;;;18.20
68440;BMP180;55421;51.600;5.718;2022-09-13T03:46:29;224692.20;;;18.20
68440;BMP180;55421;51.600;5.718;2022-09-13T03:49:02;224684.20;;;18.20
68440;BMP180;55421;51.600;5.718;2022-09-13T03:51:30;224681.80;;;18.20
68440;BMP180;55421;51.600;5.718;2022-09-13T03:54:03;224689.00;;;18.20
68440;BMP180;55421;51.600;5.718;2022-09-13T03:56:30;224699.80;;;18.24
68440;BMP180;55421;51.600;5.718;2022-09-13T03:58:57;224703.41;;;18.30
68440;BMP180;55421;51.600;5.718;2022-09-13T04:01:24;224709.41;;;18.30
68440;BMP180;55421;51.600;5.718;2022-09-13T04:03:51;224684.20;;;18.20
68440;BMP180;55421;51.600;5.718;2022-09-13T04:06:17;224664.20;;;18.20
68440;BMP180;55421;51.600;5.718;2022-09-13T04:08:44;224660.00;;;18.20
68440;BMP180;55421;51.600;5.718;2022-09-13T04:11:10;224652.80;;;18.20
68440;BMP180;55421;51.600;5.718;2022-09-13T04:13:37;224637.59;;;18.16
68440;BMP180;55421;51.600;5.718;2022-09-13T04:16:05;224607.59;;;18.10
68440;BMP180;55421;51.600;5.718;2022-09-13T04:18:33;224600.00;;;18.10
68440;BMP180;55421;51.600;5.718;2022-09-13T04:21:01;224617.20;;;18.10
68440;BMP180;55421;51.600;5.718;2022-09-13T04:23:28;224626.41;;;18.10
68440;BMP180;55421;51.600;5.718;2022-09-13T04:26:02;224634.00;;;18.10
68440;BMP180;55421;51.600;5.718;2022-09-13T04:28:28;224635.20;;;18.10
68440;BMP180;55421;51.600;5.718;2022-09-13T04:30:55;224621.59;;;18.10
68440;BMP180;55421;51.600;5.718;2022-09-13T04:33:21;224598.80;;;18.10
68440;BMP180;55421;51.600;5.718;2022-09-13T04:35:56;224586.80;;;18.02
68440;BMP180;55421;51.600;5.718;2022-09-13T04:38:23;224583.59;;;18.00
68440;BMP180;55421;51.600;5.718;2022-09-13T04:40:55;224572.80;;;18.00
68440;BMP180;55421;51.600;5.718;2022-09-13T04:43:23;224574.41;;;18.00
68440;BMP180;55421;51.600;5.718;2022-09-13T04:45:50;224572.80;;;18.00
68440;BMP180;55421;51.600;5.718;2022-09-13T04:48:16;224560.00;;;18.00
68440;BMP180;55421;51.600;5.718;2022-09-13T04:50:43;224535.20;;;18.00
68440;BMP180;55421;51.600;5.718;2022-09-13T04:53:10;224514.20;;;17.92
68440;BMP180;55421;51.600;5.718;2022-09-13T04:55:36;224502.59;;;17.90
68440;BMP180;55421;51.600;5.718;2022-09-13T04:58:03;224485.00;;;17.90
68440;BMP180;55421;51.600;5.718;2022-09-13T05:00:30;224496.20;;;17.90
68440;BMP180;55421;51.600;5.718;2022-09-13T05:02:58;224523.00;;;17.94
68440;BMP180;55421;51.600;5.718;2022-09-13T05:05:26;224550.00;;;18.00
68440;BMP180;55421;51.600;5.718;2022-09-13T05:07:54;224569.59;;;18.00
68440;BMP180;55421;51.600;5.718;2022-09-13T05:10:21;224585.59;;;18.00
68440;BMP180;55421;51.600;5.718;2022-09-13T05:12:47;224590.41;;;18.06
68440;BMP180;55421;51.600;5.718;2022-09-13T05:15:14;224574.41;;;18.00
68440;BMP180;55421;51.600;5.718;2022-09-13T05:17:40;224566.41;;;18.00
68440;BMP180;55421;51.600;5.718;2022-09-13T05:20:07;224569.59;;;18.00
68440;BMP180;55421;51.600;5.718;2022-09-13T05:22:34;224580.80;;;18.00
68440;BMP180;55421;51.600;5.718;2022-09-13T05:25:01;224594.80;;;18.10
68440;BMP180;55421;51.600;5.718;2022-09-13T05:27:27;224604.41;;;18.10
68440;BMP180;55421;51.600;5.718;2022-09-13T05:29:54;224601.20;;;18.10
68440;BMP180;55421;51.600;5.718;2022-09-13T05:32:20;224604.41;;;18.10
68440;BMP180;55421;51.600;5.718;2022-09-13T05:34:46;224600.00;;;18.10
68440;BMP180;55421;51.600;5.718;2022-09-13T05:37:13;224606.00;;;18.10
68440;BMP180;55421;51.600;5.718;2022-09-13T05:39:39;224612.41;;;18.10
68440;BMP180;55421;51.600;5.718;2022-09-13T05:42:06;224617.20;;;18.10
68440;BMP180;55421;51.600;5.718;2022-09-13T05:44:32;224628.00;;;18.10
68440;BMP180;55421;51.600;5.718;2022-09-13T05:46:59;224639.59;;;18.18
68440;BMP180;55421;51.600;5.718;2022-09-13T05:49:25;224642.80;;;18.18
68440;BMP180;55421;51.600;5.718;2022-09-13T05:51:52;224648.80;;;18.20
68440;BMP180;55421;51.600;5.718;2022-09-13T05:54:18;224663.80;;;18.20
68440;BMP180;55421;51.600;5.718;2022-09-13T05:56:45;224668.59;;;18.20
68440;BMP180;55421;51.600;5.718;2022-09-13T05:59:12;224671.41;;;18.20
68440;BMP180;55421;51.600;5.718;2022-09-13T06:01:42;224672.20;;;18.20
68440;BMP180;55421;51.600;5.718;2022-09-13T06:04:08;224692.20;;;18.20
68440;BMP180;55421;51.600;5.718;2022-09-13T06:06:37;224719.80;;;18.30
68440;BMP180;55421;51.600;5.718;2022-09-13T06:09:05;224721.41;;;18.30
68440;BMP180;55421;51.600;5.718;2022-09-13T06:11:33;224742.00;;;18.30
68440;BMP180;55421;51.600;5.718;2022-09-13T06:14:00;224762.41;;;18.38
68440;BMP180;55421;51.600;5.718;2022-09-13T06:16:26;224759.20;;;18.38
68440;BMP180;55421;51.600;5.718;2022-09-13T06:18:53;224767.20;;;18.40
68440;BMP180;55421;51.600;5.718;2022-09-13T06:21:21;224776.00;;;18.40
68440;BMP180;55421;51.600;5.718;2022-09-13T06:23:51;224800.41;;;18.40
68440;BMP180;55421;51.600;5.718;2022-09-13T06:26:22;224826.00;;;18.50
68440;BMP180;55421;51.600;5.718;2022-09-13T06:28:51;224856.20;;;18.50
68440;BMP180;55421;51.600;5.718;2022-09-13T06:31:21;224880.59;;;18.60
68440;BMP180;55421;51.600;5.718;2022-09-13T06:33:48;224920.20;;;18.66
68440;BMP180;55421;51.600;5.718;2022-09-13T06:36:18;224964.80;;;18.70
68440;BMP180;55421;51.600;5.718;2022-09-13T06:38:47;224976.80;;;18.70
68440;BMP180;55421;51.600;5.718;2022-09-13T06:41:19;224982.80;;;18.72
68440;BMP180;55421;51.600;5.718;2022-09-13T06:43:47;224994.80;;;18.80
68440;BMP180;55421;51.600;5.718;2022-09-13T06:46:18;225030.59;;;18.80
68440;BMP180;55421;51.600;5.718;2022-09-13T06:48:45;225067.80;;;18.90
68440;BMP180;55421;51.600;5.718;2022-09-13T06:51:17;225108.20;;;19.00
68440;BMP180;55421;51.600;5.718;2022-09-13T06:53:47;225125.41;;;19.00
68440;BMP180;55421;51.600;5.718;2022-09-13T06:58:56;225134.20;;;19.00
68440;BMP180;55421;51.600;5.718;2022-09-13T07:01:39;225138.20;;;19.00
68440;BMP180;55421;51.600;5.718;2022-09-13T07:04:09;225154.20;;;19.10
68440;BMP180;55421;51.600;5.718;2022-09-13T07:06:39;225170.41;;;19.10
68440;BMP180;55421;51.600;5.718;2022-09-13T07:09:11;225231.41;;;19.20
68440;BMP180;55421;51.600;5.718;2022-09-13T07:11:40;225314.59;;;19.36
68440;BMP180;55421;51.600;5.718;2022-09-13T07:14:08;225357.20;;;19.40
68440;BMP180;55421;51.600;5.718;2022-09-13T07:16:37;225365.20;;;19.40
68440;BMP180;55421;51.600;5.718;2022-09-13T07:19:07;225417.59;;;19.50
68440;BMP180;55421;51.600;5.718;2022-09-13T07:21:34;225476.59;;;19.60
68440;BMP180;55421;51.600;5.718;2022-09-13T07:24:01;225504.41;;;19.70
68440;BMP180;55421;51.600;5.718;2022-09-13T07:26:28;225528.41;;;19.70
68440;BMP180;55421;51.600;5.718;2022-09-13T07:28:58;225555.20;;;19.80
68440;BMP180;55421;51.600;5.718;2022-09-13T07:31:29;225587.59;;;19.80
68440;BMP180;55421;51.600;5.718;2022-09-13T07:33:59;225607.59;;;19.90
68440;BMP180;55421;51.600;5.718;2022-09-13T07:36:29;225620.41;;;19.90
68440;BMP180;55421;51.600;5.718;2022-09-13T07:38:57;225620.41;;;19.90
68440;BMP180;55421;51.600;5.718;2022-09-13T07:41:26;225637.41;;;19.90
68440;BMP180;55421;51.600;5.718;2022-09-13T07:43:54;225643.80;;;19.92
68440;BMP180;55421;51.600;5.718;2022-09-13T07:46:24;225660.59;;;20.00
68440;BMP180;55421;51.600;5.718;2022-09-13T07:48:53;225707.59;;;20.00
68440;BMP180;55421;51.600;5.718;2022-09-13T07:51:24;225778.00;;;20.16
68440;BMP180;55421;51.600;5.718;2022-09-13T07:53:53;225857.00;;;20.30
68440;BMP180;55421;51.600;5.718;2022-09-13T07:56:25;225936.59;;;20.42
68440;BMP180;55421;51.600;5.718;2022-09-13T07:58:53;226018.20;;;20.60
68440;BMP180;55421;51.600;5.718;2022-09-13T08:01:29;226077.00;;;20.70
68440;BMP180;55421;51.600;5.718;2022-09-13T08:04:04;226109.00;;;20.80
68440;BMP180;55421;51.600;5.718;2022-09-13T08:06:34;226136.59;;;20.80
68440;BMP180;55421;51.600;5.718;2022-09-13T08:09:02;226178.41;;;20.90
68440;BMP180;55421;51.600;5.718;2022-09-13T08:11:35;226231.80;;;21.00
68440;BMP180;55421;51.600;5.718;2022-09-13T08:14:05;226299.00;;;21.10
68440;BMP180;55421;51.600;5.718;2022-09-13T08:16:32;226347.20;;;21.20
68440;BMP180;55421;51.600;5.718;2022-09-13T08:19:02;226395.20;;;21.28
68440;BMP180;55421;51.600;5.718;2022-09-13T08:21:36;226432.00;;;21.30
68440;BMP180;55421;51.600;5.718;2022-09-13T08:24:06;226442.20;;;21.34
68440;BMP180;55421;51.600;5.718;2022-09-13T08:26:35;226473.80;;;21.40
68440;BMP180;55421;51.600;5.718;2022-09-13T08:29:04;226555.20;;;21.50
68440;BMP180;55421;51.600;5.718;2022-09-13T08:31:33;226608.80;;;21.60
68440;BMP180;55421;51.600;5.718;2022-09-13T08:34:00;226632.80;;;21.70
68440;BMP180;55421;51.600;5.718;2022-09-13T08:36:27;226647.80;;;21.70
68440;BMP180;55421;51.600;5.718;2022-09-13T08:38:57;226683.00;;;21.80
68440;BMP180;55421;51.600;5.718;2022-09-13T08:44:33;226732.20;;;21.90
68440;BMP180;55421;51.600;5.718;2022-09-13T08:47:25;226786.00;;;21.92
68440;BMP180;55421;51.600;5.718;2022-09-13T08:50:30;226815.80;;;22.00
68440;BMP180;55421;51.600;5.718;2022-09-13T08:55:57;226903.41;;;22.14
68440;BMP180;55421;51.600;5.718;2022-09-13T08:58:35;226928.59;;;22.20
68440;BMP180;55421;51.600;5.718;2022-09-13T09:01:48;226966.00;;;22.30
68440;BMP180;55421;51.600;5.718;2022-09-13T09:04:36;227021.80;;;22.36
68440;BMP180;55421;51.600;5.718;2022-09-13T09:07:15;227031.41;;;22.40
68440;BMP180;55421;51.600;5.718;2022-09-13T09:09:54;227074.20;;;22.48
68440;BMP180;55421;51.600;5.718;2022-09-13T09:15:24;227198.00;;;22.70
68440;BMP180;55421;51.600;5.718;2022-09-13T09:18:02;227218.80;;;22.70
68440;BMP180;55421;51.600;5.718;2022-09-13T09:20:35;227260.20;;;22.80
68440;BMP180;55421;51.600;5.718;2022-09-13T09:26:01;227414.41;;;23.08
68440;BMP180;55421;51.600;5.718;2022-09-13T09:28:34;227438.20;;;23.10
68440;BMP180;55421;51.600;5.718;2022-09-13T09:31:16;227473.00;;;23.20
68440;BMP180;55421;51.600;5.718;2022-09-13T09:36:43;227497.00;;;23.20
68440;BMP180;55421;51.600;5.718;2022-09-13T09:39:13;227513.41;;;23.20
68440;BMP180;55421;51.600;5.718;2022-09-13T09:41:43;227516.20;;;23.22
68440;BMP180;55421;51.600;5.718;2022-09-13T09:44:19;227566.00;;;23.30
68440;BMP180;55421;51.600;5.718;2022-09-13T09:46:54;227620.41;;;23.40
68440;BMP180;55421;51.600;5.718;2022-09-13T09:49:46;227675.00;;;23.50
68440;BMP180;55421;51.600;5.718;2022-09-13T09:52:52;227670.20;;;23.50
68440;BMP180;55421;51.600;5.718;2022-09-13T09:58:05;227632.20;;;23.40
68440;BMP180;55421;51.600;5.718;2022-09-13T10:00:37;227577.20;;;23.36
68440;BMP180;55421;51.600;5.718;2022-09-13T10:03:19;227505.00;;;23.20
68440;BMP180;55421;51.600;5.718;2022-09-13T10:05:46;227512.20;;;23.20
68440;BMP180;55421;51.600;5.718;2022-09-13T10:08:29;227561.20;;;23.30
68440;BMP180;55421;51.600;5.718;2022-09-13T10:11:00;227631.80;;;23.44
68440;BMP180;55421;51.600;5.718;2022-09-13T10:13:28;227716.20;;;23.60
68440;BMP180;55421;51.600;5.718;2022-09-13T10:16:01;227807.80;;;23.72
68440;BMP180;55421;51.600;5.718;2022-09-13T10:18:34;227929.80;;;23.98
68440;BMP180;55421;51.600;5.718;2022-09-13T10:23:48;228113.00;;;24.30
68440;BMP180;55421;51.600;5.718;2022-09-13T10:26:21;228158.41;;;24.40
68440;BMP180;55421;51.600;5.718;2022-09-13T10:31:30;228251.20;;;24.56
68440;BMP180;55421;51.600;5.718;2022-09-13T10:34:04;228187.59;;;24.40
68440;BMP180;55421;51.600;5.718;2022-09-13T10:36:36;228069.00;;;24.20
68440;BMP180;55421;51.600;5.718;2022-09-13T10:39:07;227981.20;;;24.10
68440;BMP180;55421;51.600;5.718;2022-09-13T10:41:41;227921.41;;;23.94
68440;BMP180;55421;51.600;5.718;2022-09-13T10:44:31;227851.00;;;23.80
68440;BMP180;55421;51.600;5.718;2022-09-13T10:47:04;227775.59;;;23.70
68440;BMP180;55421;51.600;5.718;2022-09-13T10:49:53;227705.80;;;23.60
68440;BMP180;55421;51.600;5.718;2022-09-13T10:52:34;227743.41;;;23.60
68440;BMP180;55421;51.600;5.718;2022-09-13T11:04:09;227913.41;;;23.90
68440;BMP180;55421;51.600;5.718;2022-09-13T11:06:53;227923.00;;;23.98
68440;BMP180;55421;51.600;5.718;2022-09-13T11:09:46;227910.20;;;23.90
68440;BMP180;55421;51.600;5.718;2022-09-13T11:12:23;227928.59;;;24.00
68440;BMP180;55421;51.600;5.718;2022-09-13T11:15:03;227959.20;;;24.00
68440;BMP180;55421;51.600;5.718;2022-09-13T11:17:57;227977.59;;;24.10
68440;BMP180;55421;51.600;5.718;2022-09-13T11:26:40;228088.20;;;24.24
68440;BMP180;55421;51.600;5.718;2022-09-13T11:29:47;228117.20;;;24.30
68440;BMP180;55421;51.600;5.718;2022-09-13T11:41:42;228011.20;;;24.10
68440;BMP180;55421;51.600;5.718;2022-09-13T11:44:52;227982.41;;;24.10
68440;BMP180;55421;51.600;5.718;2022-09-13T11:50:24;227948.41;;;24.00
68440;BMP180;55421;51.600;5.718;2022-09-13T11:56:11;228036.80;;;24.20
68440;BMP180;55421;51.600;5.718;2022-09-13T11:58:59;228123.59;;;24.30
68440;BMP180;55421;51.600;5.718;2022-09-13T12:01:44;228221.59;;;24.50
68440;BMP180;55421;51.600;5.718;2022-09-13T12:04:22;228327.59;;;24.68
68440;BMP180;55421;51.600;5.718;2022-09-13T12:07:00;228385.20;;;24.80
68440;BMP180;55421;51.600;5.718;2022-09-13T12:09:35;228394.80;;;24.80
68440;BMP180;55421;51.600;5.718;2022-09-13T12:12:10;228354.00;;;24.70
68440;BMP180;55421;51.600;5.718;2022-09-13T12:14:49;228275.80;;;24.60
68440;BMP180;55421;51.600;5.718;2022-09-13T12:17:42;228228.80;;;24.50
68440;BMP180;55421;51.600;5.718;2022-09-13T12:20:29;228191.59;;;24.40
68440;BMP180;55421;51.600;5.718;2022-09-13T12:23:01;228153.20;;;24.40
68440;BMP180;55421;51.600;5.718;2022-09-13T12:25:47;228117.20;;;24.30
68440;BMP180;55421;51.600;5.718;2022-09-13T12:28:25;228106.20;;;24.30
68440;BMP180;55421;51.600;5.718;2022-09-13T12:30:59;228126.80;;;24.30
68440;BMP180;55421;51.600;5.718;2022-09-13T12:33:27;228139.59;;;24.30
68440;BMP180;55421;51.600;5.718;2022-09-13T12:39:12;228174.00;;;24.40
68440;BMP180;55421;51.600;5.718;2022-09-13T12:48:03;228078.59;;;24.20
68440;BMP180;55421;51.600;5.718;2022-09-13T12:57:08;227990.41;;;24.10
68440;BMP180;55421;51.600;5.718;2022-09-13T13:05:39;227942.00;;;24.00
68440;BMP180;55421;51.600;5.718;2022-09-13T13:11:09;227976.80;;;24.08
68440;BMP180;55421;51.600;5.718;2022-09-13T13:13:41;228032.00;;;24.16
68440;BMP180;55421;51.600;5.718;2022-09-13T13:16:33;228109.80;;;24.30
68440;BMP180;55421;51.600;5.718;2022-09-13T13:19:31;228162.00;;;24.40
68440;BMP180;55421;51.600;5.718;2022-09-13T13:25:37;228246.41;;;24.50
68440;BMP180;55421;51.600;5.718;2022-09-13T13:39:34;228267.80;;;24.60
68440;BMP180;55421;51.600;5.718;2022-09-13T13:42:25;228224.41;;;24.50
68440;BMP180;55421;51.600;5.718;2022-09-13T13:50:15;228115.59;;;24.30
68440;BMP180;55421;51.600;5.718;2022-09-13T14:00:50;228138.00;;;24.30
68440;BMP180;55421;51.600;5.718;2022-09-13T14:10:05;228150.41;;;24.38
68440;BMP180;55421;51.600;5.718;2022-09-13T14:12:48;228154.80;;;24.40
68440;BMP180;55421;51.600;5.718;2022-09-13T14:15:47;228158.80;;;24.40
68440;BMP180;55421;51.600;5.718;2022-09-13T14:19:03;228154.41;;;24.40
68440;BMP180;55421;51.600;5.718;2022-09-13T14:21:29;228175.20;;;24.40
68440;BMP180;55421;51.600;5.718;2022-09-13T14:24:23;228213.20;;;24.50
68440;BMP180;55421;51.600;5.718;2022-09-13T14:26:57;228227.20;;;24.50
68440;BMP180;55421;51.600;5.718;2022-09-13T14:29:24;228238.41;;;24.50
68440;BMP180;55421;51.600;5.718;2022-09-13T14:31:56;228248.00;;;24.50
68440;BMP180;55421;51.600;5.718;2022-09-13T14:34:35;228235.20;;;24.50
68440;BMP180;55421;51.600;5.718;2022-09-13T14:37:16;228202.41;;;24.40
68440;BMP180;55421;51.600;5.718;2022-09-13T14:40:17;228166.80;;;24.40
68440;BMP180;55421;51.600;5.718;2022-09-13T14:42:47;228142.41;;;24.30
68440;BMP180;55421;51.600;5.718;2022-09-13T14:45:19;228145.59;;;24.32
68440;BMP180;55421;51.600;5.718;2022-09-13T14:48:09;228133.20;;;24.30
68440;BMP180;55421;51.600;5.718;2022-09-13T14:50:49;228123.59;;;24.30
68440;BMP180;55421;51.600;5.718;2022-09-13T14:53:23;228118.80;;;24.30
68440;BMP180;55421;51.600;5.718;2022-09-13T14:56:02;228115.59;;;24.30
68440;BMP180;55421;51.600;5.718;2022-09-13T14:58:48;228111.41;;;24.30
68440;BMP180;55421;51.600;5.718;2022-09-13T15:01:29;228123.59;;;24.30
68440;BMP180;55421;51.600;5.718;2022-09-13T15:03:58;228126.80;;;24.30
68440;BMP180;55421;51.600;5.718;2022-09-13T15:06:32;228126.80;;;24.30
68440;BMP180;55421;51.600;5.718;2022-09-13T15:11:54;228095.59;;;24.28
68440;BMP180;55421;51.600;5.718;2022-09-13T15:14:35;228078.59;;;24.20
68440;BMP180;55421;51.600;5.718;2022-09-13T15:19:48;227995.20;;;24.10
68440;BMP180;55421;51.600;5.718;2022-09-13T15:22:26;227956.00;;;24.00
68440;BMP180;55421;51.600;5.718;2022-09-13T15:24:57;227935.00;;;24.00
68440;BMP180;55421;51.600;5.718;2022-09-13T15:27:32;227894.20;;;23.90
68440;BMP180;55421;51.600;5.718;2022-09-13T15:30:30;227868.59;;;23.90
68440;BMP180;55421;51.600;5.718;2022-09-13T15:35:40;227868.59;;;23.86
68440;BMP180;55421;51.600;5.718;2022-09-13T15:38:23;227859.00;;;23.80
68440;BMP180;55421;51.600;5.718;2022-09-13T15:41:02;227854.20;;;23.80
68440;BMP180;55421;51.600;5.718;2022-09-13T15:43:29;227859.00;;;23.80
68440;BMP180;55421;51.600;5.718;2022-09-13T15:45:58;227860.59;;;23.84
68440;BMP180;55421;51.600;5.718;2022-09-13T15:48:29;227886.20;;;23.90
68440;BMP180;55421;51.600;5.718;2022-09-13T15:51:10;227894.20;;;23.90
68440;BMP180;55421;51.600;5.718;2022-09-13T15:53:43;227905.41;;;23.90
68440;BMP180;55421;51.600;5.718;2022-09-13T15:56:18;227903.80;;;23.90
68440;BMP180;55421;51.600;5.718;2022-09-13T15:58:45;227892.59;;;23.90
68440;BMP180;55421;51.600;5.718;2022-09-13T16:01:14;227878.20;;;23.90
68440;BMP180;55421;51.600;5.718;2022-09-13T16:03:41;227832.59;;;23.80
68440;BMP180;55421;51.600;5.718;2022-09-13T16:06:09;227805.41;;;23.72
68440;BMP180;55421;51.600;5.718;2022-09-13T16:08:36;227771.20;;;23.70
68440;BMP180;55421;51.600;5.718;2022-09-13T16:11:04;227740.20;;;23.60
68440;BMP180;55421;51.600;5.718;2022-09-13T16:13:31;227723.80;;;23.60
68440;BMP180;55421;51.600;5.718;2022-09-13T16:15:58;227721.00;;;23.60
68440;BMP180;55421;51.600;5.718;2022-09-13T16:18:25;227717.80;;;23.60
68440;BMP180;55421;51.600;5.718;2022-09-13T16:20:51;227695.41;;;23.58
68440;BMP180;55421;51.600;5.718;2022-09-13T16:23:18;227675.00;;;23.50
68440;BMP180;55421;51.600;5.718;2022-09-13T16:25:44;227668.59;;;23.50
68440;BMP180;55421;51.600;5.718;2022-09-13T16:28:17;227655.80;;;23.50
68440;BMP180;55421;51.600;5.718;2022-09-13T16:30:47;227647.00;;;23.50
68440;BMP180;55421;51.600;5.718;2022-09-13T16:33:14;227632.20;;;23.48
68440;BMP180;55421;51.600;5.718;2022-09-13T16:35:40;227621.80;;;23.40
68440;BMP180;55421;51.600;5.718;2022-09-13T16:38:09;227603.59;;;23.40
68440;BMP180;55421;51.600;5.718;2022-09-13T16:40:42;227574.00;;;23.30
68440;BMP180;55421;51.600;5.718;2022-09-13T16:43:10;227537.80;;;23.30
68440;BMP180;55421;51.600;5.718;2022-09-13T16:45:39;227513.41;;;23.20
68440;BMP180;55421;51.600;5.718;2022-09-13T16:48:07;227492.20;;;23.20
68440;BMP180;55421;51.600;5.718;2022-09-13T16:50:34;227473.41;;;23.20
68440;BMP180;55421;51.600;5.718;2022-09-13T16:53:04;227471.80;;;23.18
68440;BMP180;55421;51.600;5.718;2022-09-13T16:55:30;227462.20;;;23.10
68440;BMP180;55421;51.600;5.718;2022-09-13T16:57:57;227455.80;;;23.10
68440;BMP180;55421;51.600;5.718;2022-09-13T17:00:23;227427.59;;;23.10
68440;BMP180;55421;51.600;5.718;2022-09-13T17:02:56;227396.41;;;23.00
68440;BMP180;55421;51.600;5.718;2022-09-13T17:05:23;227337.20;;;22.90
68440;BMP180;55421;51.600;5.718;2022-09-13T17:07:51;227277.80;;;22.80
68440;BMP180;55421;51.600;5.718;2022-09-13T17:10:19;227218.80;;;22.70
68440;BMP180;55421;51.600;5.718;2022-09-13T17:12:46;227185.20;;;22.68
68440;BMP180;55421;51.600;5.718;2022-09-13T17:15:12;227142.00;;;22.60
68440;BMP180;55421;51.600;5.718;2022-09-13T17:17:39;227101.80;;;22.50